Time,TemperatureF,DewpointF,PressureIn,WindDirection,WindDirectionDegrees,WindSpeedMPH,WindSpeedGustMPH,Humidity,HourlyPrecipIn,Conditions,Clouds,dailyrainin,SoftwareType,DateUTC
2013-08-23 00:00:00,68.0,62.6,29.93,NW,321,0.0,0.0,83,0.00,,,0.10,Wunderground v.1.15,2013-08-23 04:00:00,
2013-08-23 00:01:00,68.0,62.6,29.94,NW,321,0.0,0.0,83,0.00,,,0.00,Wunderground v.1.15,2013-08-23 04:01:00,
2013-08-23 00:02:00,68.0,62.6,29.94,NW,321,0.0,0.0,83,0.00,,,0.00,Wunderground v.1.15,2013-08-23 04:02:00,
2013-08-23 00:05:00,68.0,62.6,29.94,NW,321,0.0,2.0,83,0.00,,,0.00,Wunderground v.1.15,2013-08-23 04:05:00,
2013-08-23 00:11:00,67.9,62.5,29.94,NW,320,0.0,0.0,83,0.00,,,0.00,Wunderground v.1.15,2013-08-23 04:11:00,
2013-08-23 00:12:00,67.9,62.5,29.94,NW,320,0.0,0.0,83,0.00,,,0.00,Wunderground v.1.15,2013-08-23 04:12:00,
2013-08-23 00:17:00,67.8,62.4,29.95,NW,320,0.0,2.0,83,0.00,,,0.00,Wunderground v.1.15,2013-08-23 04:17:00,
2013-08-23 00:20:00,67.8,62.4,29.94,NW,320,0.0,1.0,83,0.00,,,0.00,Wunderground v.1.15,2013-08-23 04:20:00,
2013-08-23 00:26:00,67.7,62.3,29.94,NW,320,0.0,1.0,83,0.00,,,0.00,Wunderground v.1.15,2013-08-23 04:26:00,
2013-08-23 00:31:00,67.7,62.3,29.94,NW,320,0.0,0.0,83,0.00,,,0.00,Wunderground v.1.15,2013-08-23 04:31:00,
2013-08-23 00:37:00,67.4,62.1,29.95,NW,319,0.0,3.0,83,0.00,,,0.00,Wunderground v.1.15,2013-08-23 04:37:00,
2013-08-23 00:43:00,67.3,62.0,29.95,NW,319,1.0,1.0,83,0.00,,,0.00,Wunderground v.1.15,2013-08-23 04:43:00,
2013-08-23 00:48:00,67.2,61.9,29.95,NW,319,0.0,2.0,83,0.00,,,0.01,Wunderground v.1.15,2013-08-23 04:48:00,
2013-08-23 00:54:00,66.9,61.6,29.95,NW,319,0.0,0.0,83,0.00,,,0.01,Wunderground v.1.15,2013-08-23 04:54:00,
2013-08-23 00:59:00,66.8,61.5,29.95,NW,319,0.0,3.0,83,0.00,,,0.01,Wunderground v.1.15,2013-08-23 04:59:00,
2013-08-23 01:05:00,66.6,61.3,29.95,NW,319,0.0,0.0,83,0.00,,,0.01,Wunderground v.1.15,2013-08-23 05:05:00,
2013-08-23 01:11:00,66.4,61.1,29.95,NW,319,0.0,0.0,83,0.00,,,0.01,Wunderground v.1.15,2013-08-23 05:11:00,
2013-08-23 01:17:00,66.1,61.1,29.95,NW,319,0.0,0.0,84,0.00,,,0.01,Wunderground v.1.15,2013-08-23 05:17:00,
2013-08-23 01:22:00,65.9,60.9,29.95,NW,319,0.0,0.0,84,0.00,,,0.01,Wunderground v.1.15,2013-08-23 05:22:00,
2013-08-23 01:27:00,65.6,60.6,29.95,NW,319,0.0,0.0,84,0.00,,,0.02,Wunderground v.1.15,2013-08-23 05:27:00,
2013-08-23 01:33:00,65.3,60.3,29.95,NW,319,0.0,0.0,84,0.00,,,0.02,Wunderground v.1.15,2013-08-23 05:33:00,
2013-08-23 01:38:00,65.1,60.1,29.96,NW,319,0.0,0.0,84,0.00,,,0.02,Wunderground v.1.15,2013-08-23 05:38:00,
2013-08-23 01:43:00,64.9,59.9,29.96,NW,319,0.0,0.0,84,0.00,,,0.02,Wunderground v.1.15,2013-08-23 05:43:00,
2013-08-23 01:48:00,64.6,59.7,29.96,NW,319,0.0,0.0,84,0.00,,,0.02,Wunderground v.1.15,2013-08-23 05:48:00,
2013-08-23 01:54:00,64.3,59.4,29.96,NW,319,0.0,0.0,84,0.00,,,0.02,Wunderground v.1.15,2013-08-23 05:54:00,
2013-08-23 01:59:00,64.1,59.2,29.95,NW,319,0.0,0.0,84,0.00,,,0.02,Wunderground v.1.15,2013-08-23 05:59:00,
2013-08-23 02:04:00,64.0,59.1,29.95,NW,319,0.0,0.0,84,0.00,,,0.03,Wunderground v.1.15,2013-08-23 06:04:00,
2013-08-23 02:10:00,63.7,58.8,29.95,NW,319,0.0,0.0,84,0.00,,,0.03,Wunderground v.1.15,2013-08-23 06:10:00,
2013-08-23 02:15:00,63.4,58.8,29.96,NW,319,0.0,0.0,85,0.00,,,0.03,Wunderground v.1.15,2013-08-23 06:15:00,
2013-08-23 02:21:00,63.0,58.4,29.96,NW,319,0.0,0.0,85,0.00,,,0.03,Wunderground v.1.15,2013-08-23 06:21:00,
2013-08-23 02:26:00,62.6,58.0,29.96,NW,319,0.0,0.0,85,0.00,,,0.03,Wunderground v.1.15,2013-08-23 06:26:00,
2013-08-23 02:32:00,62.3,57.7,29.96,NW,319,0.0,0.0,85,0.00,,,0.03,Wunderground v.1.15,2013-08-23 06:32:00,
2013-08-23 02:37:00,62.0,57.4,29.96,NW,319,0.0,0.0,85,0.00,,,0.03,Wunderground v.1.15,2013-08-23 06:37:00,
2013-08-23 02:42:00,61.8,57.2,29.96,NW,319,0.0,0.0,85,0.00,,,0.04,Wunderground v.1.15,2013-08-23 06:42:00,
2013-08-23 02:48:00,61.6,57.0,29.96,NW,319,0.0,0.0,85,0.00,,,0.04,Wunderground v.1.15,2013-08-23 06:48:00,
2013-08-23 02:53:00,61.4,56.8,29.96,NW,319,0.0,0.0,85,0.00,,,0.04,Wunderground v.1.15,2013-08-23 06:53:00,
2013-08-23 02:58:00,61.1,56.6,29.96,NW,319,0.0,0.0,85,0.00,,,0.04,Wunderground v.1.15,2013-08-23 06:58:00,
2013-08-23 03:04:00,60.8,56.3,29.97,NW,319,0.0,0.0,85,0.00,,,0.04,Wunderground v.1.15,2013-08-23 07:04:00,
2013-08-23 03:09:00,60.6,56.1,29.96,NW,319,0.0,0.0,85,0.00,,,0.04,Wunderground v.1.15,2013-08-23 07:09:00,
2013-08-23 03:14:00,60.5,56.0,29.96,NW,319,0.0,0.0,85,0.00,,,0.04,Wunderground v.1.15,2013-08-23 07:14:00,
2013-08-23 03:20:00,60.3,55.8,29.96,NW,319,0.0,0.0,85,0.00,,,0.05,Wunderground v.1.15,2013-08-23 07:20:00,
2013-08-23 03:25:00,60.0,55.5,29.96,NW,319,0.0,0.0,85,0.00,,,0.05,Wunderground v.1.15,2013-08-23 07:25:00,
2013-08-23 03:30:00,60.0,55.5,29.96,NW,319,0.0,0.0,85,0.00,,,0.05,Wunderground v.1.15,2013-08-23 07:30:00,
2013-08-23 03:36:00,59.8,55.3,29.97,NW,319,0.0,0.0,85,0.00,,,0.05,Wunderground v.1.15,2013-08-23 07:36:00,
2013-08-23 03:41:00,59.6,55.1,29.96,NW,319,0.0,0.0,85,0.00,,,0.05,Wunderground v.1.15,2013-08-23 07:41:00,
2013-08-23 03:47:00,59.3,55.1,29.96,NW,319,0.0,0.0,86,0.00,,,0.05,Wunderground v.1.15,2013-08-23 07:47:00,
2013-08-23 03:52:00,59.0,54.8,29.96,NW,319,0.0,0.0,86,0.00,,,0.05,Wunderground v.1.15,2013-08-23 07:52:00,
2013-08-23 03:57:00,58.8,54.6,29.96,NW,319,0.0,0.0,86,0.00,,,0.05,Wunderground v.1.15,2013-08-23 07:57:00,
2013-08-23 04:03:00,58.5,54.3,29.96,NW,319,0.0,0.0,86,0.00,,,0.06,Wunderground v.1.15,2013-08-23 08:03:00,
2013-08-23 04:08:00,58.2,54.0,29.96,NW,319,0.0,0.0,86,0.00,,,0.06,Wunderground v.1.15,2013-08-23 08:08:00,
2013-08-23 04:14:00,58.0,53.8,29.95,NW,319,0.0,0.0,86,0.00,,,0.06,Wunderground v.1.15,2013-08-23 08:14:00,
2013-08-23 04:19:00,58.0,53.5,29.95,NW,319,0.0,0.0,85,0.00,,,0.06,Wunderground v.1.15,2013-08-23 08:19:00,
2013-08-23 04:24:00,57.9,53.7,29.96,NW,319,0.0,0.0,86,0.00,,,0.06,Wunderground v.1.15,2013-08-23 08:24:00,
2013-08-23 04:30:00,57.4,53.2,29.96,NW,319,0.0,0.0,86,0.00,,,0.06,Wunderground v.1.15,2013-08-23 08:30:00,
2013-08-23 04:35:00,57.0,53.2,29.96,NW,319,0.0,0.0,87,0.00,,,0.06,Wunderground v.1.15,2013-08-23 08:35:00,
2013-08-23 04:41:00,56.8,52.7,29.97,NW,319,0.0,0.0,86,0.00,,,0.06,Wunderground v.1.15,2013-08-23 08:41:00,
2013-08-23 04:46:00,56.7,52.6,29.97,NW,319,0.0,0.0,86,0.00,,,0.06,Wunderground v.1.15,2013-08-23 08:46:00,
2013-08-23 04:51:00,56.6,52.5,29.96,NW,319,0.0,0.0,86,0.00,,,0.07,Wunderground v.1.15,2013-08-23 08:51:00,
2013-08-23 04:57:00,56.7,52.2,29.96,NW,319,0.0,0.0,85,0.00,,,0.07,Wunderground v.1.15,2013-08-23 08:57:00,
2013-08-23 05:02:00,56.7,52.2,29.96,NW,319,0.0,0.0,85,0.00,,,0.07,Wunderground v.1.15,2013-08-23 09:02:00,
2013-08-23 15:02:00,72.5,59.6,30.07,NW,324,3.0,3.0,64,0.00,,,0.17,Wunderground v.1.15,2013-08-23 19:02:00,
2013-08-23 15:08:00,73.5,59.7,30.06,NW,319,3.0,6.0,62,0.00,,,0.17,Wunderground v.1.15,2013-08-23 19:08:00,
2013-08-23 15:14:00,74.0,60.6,30.06,WNW,300,3.0,7.0,63,0.00,,,0.18,Wunderground v.1.15,2013-08-23 19:14:00,
2013-08-23 15:19:00,73.7,60.8,30.06,NW,312,3.0,7.0,64,0.00,,,0.18,Wunderground v.1.15,2013-08-23 19:19:00,
2013-08-23 15:25:00,74.0,61.9,30.06,NW,321,3.0,5.0,66,0.00,,,0.18,Wunderground v.1.15,2013-08-23 19:25:00,
2013-08-23 15:30:00,74.2,61.2,30.06,NNW,346,3.0,4.0,64,0.00,,,0.18,Wunderground v.1.15,2013-08-23 19:30:00,
2013-08-23 15:36:00,74.5,61.5,30.06,NW,325,3.0,4.0,64,0.00,,,0.18,Wunderground v.1.15,2013-08-23 19:36:00,
2013-08-23 15:41:00,75.0,62.0,30.06,NW,315,2.0,3.0,64,0.00,,,0.18,Wunderground v.1.15,2013-08-23 19:41:00,
2013-08-23 15:46:00,74.3,60.4,30.06,SW,229,3.0,6.0,62,0.00,,,0.18,Wunderground v.1.15,2013-08-23 19:46:00,
2013-08-23 15:52:00,73.9,61.4,30.07,West,276,5.0,5.0,65,0.00,,,0.18,Wunderground v.1.15,2013-08-23 19:52:00,
2013-08-23 15:57:00,73.5,59.7,30.07,West,273,4.0,5.0,62,0.00,,,0.18,Wunderground v.1.15,2013-08-23 19:57:00,
2013-08-23 16:03:00,74.1,60.7,30.07,NW,320,3.0,3.0,63,0.00,,,0.18,Wunderground v.1.15,2013-08-23 20:03:00,
2013-08-23 16:08:00,73.0,60.5,30.07,WNW,287,3.0,3.0,65,0.00,,,0.18,Wunderground v.1.15,2013-08-23 20:08:00,
2013-08-23 16:14:00,73.3,61.3,30.07,WNW,298,2.0,4.0,66,0.00,,,0.18,Wunderground v.1.15,2013-08-23 20:14:00,
2013-08-23 16:19:00,73.2,60.7,30.07,WNW,289,1.0,4.0,65,0.00,,,0.18,Wunderground v.1.15,2013-08-23 20:19:00,
2013-08-23 16:25:00,72.5,61.3,30.07,NW,318,2.0,4.0,68,0.00,,,0.19,Wunderground v.1.15,2013-08-23 20:25:00,
2013-08-23 16:31:00,73.5,62.7,30.07,NNW,331,2.0,2.0,69,0.00,,,0.19,Wunderground v.1.15,2013-08-23 20:31:00,
2013-08-23 16:36:00,73.8,61.7,30.07,West,273,2.0,4.0,66,0.00,,,0.19,Wunderground v.1.15,2013-08-23 20:36:00,
2013-08-23 16:42:00,74.0,61.9,30.06,West,262,2.0,2.0,66,0.00,,,0.19,Wunderground v.1.15,2013-08-23 20:42:00,
2013-08-23 16:47:00,73.6,61.1,30.08,NW,317,2.0,5.0,65,0.00,,,0.19,Wunderground v.1.15,2013-08-23 20:47:00,
2013-08-23 16:53:00,72.5,60.9,30.08,NW,319,2.0,2.0,67,0.00,,,0.19,Wunderground v.1.15,2013-08-23 20:53:00,
2013-08-23 16:58:00,71.5,61.2,30.08,West,273,1.0,4.0,70,0.00,,,0.19,Wunderground v.1.15,2013-08-23 20:58:00,
2013-08-23 17:04:00,71.3,61.8,30.08,West,275,1.0,1.0,72,0.00,,,0.19,Wunderground v.1.15,2013-08-23 21:04:00,
2013-08-23 17:09:00,72.2,62.3,30.08,West,275,0.0,1.0,71,0.00,,,0.19,Wunderground v.1.15,2013-08-23 21:09:00,
2013-08-23 17:15:00,72.4,60.8,30.08,WNW,302,1.0,3.0,67,0.00,,,0.19,Wunderground v.1.15,2013-08-23 21:15:00,
2013-08-23 17:20:00,71.9,60.8,30.08,NW,308,2.0,2.0,68,0.00,,,0.19,Wunderground v.1.15,2013-08-23 21:20:00,
2013-08-23 17:26:00,71.3,60.2,30.08,NW,308,1.0,2.0,68,0.00,,,0.19,Wunderground v.1.15,2013-08-23 21:26:00,
2013-08-23 17:31:00,70.8,59.7,30.08,NW,308,0.0,0.0,68,0.00,,,0.19,Wunderground v.1.15,2013-08-23 21:31:00,
2013-08-23 17:36:00,70.3,58.8,30.08,NW,308,0.0,0.0,67,0.00,,,0.19,Wunderground v.1.15,2013-08-23 21:36:00,
2013-08-23 17:42:00,69.8,59.6,30.08,NW,308,0.0,0.0,70,0.00,,,0.19,Wunderground v.1.15,2013-08-23 21:42:00,
2013-08-23 17:47:00,69.7,59.5,30.08,NW,308,0.0,0.0,70,0.00,,,0.19,Wunderground v.1.15,2013-08-23 21:47:00,
2013-08-23 17:53:00,70.1,59.0,30.09,NW,309,0.0,3.0,68,0.00,,,0.19,Wunderground v.1.15,2013-08-23 21:53:00,
2013-08-23 17:59:00,71.5,58.7,30.09,ENE,59,3.0,6.0,64,0.00,,,0.20,Wunderground v.1.15,2013-08-23 21:59:00,
2013-08-23 18:05:00,71.6,58.8,30.09,NNE,22,4.0,4.0,64,0.00,,,0.20,Wunderground v.1.15,2013-08-23 22:05:00,
2013-08-23 18:11:00,71.4,58.6,30.09,NW,319,3.0,4.0,64,0.00,,,0.20,Wunderground v.1.15,2013-08-23 22:11:00,
2013-08-23 18:16:00,71.2,58.4,30.09,North,5,3.0,6.0,64,0.00,,,0.20,Wunderground v.1.15,2013-08-23 22:16:00,
2013-08-23 18:22:00,70.9,58.1,30.09,NNE,24,3.0,6.0,64,0.00,,,0.20,Wunderground v.1.15,2013-08-23 22:22:00,
2013-08-23 18:27:00,70.6,56.9,30.09,NE,47,3.0,7.0,62,0.00,,,0.20,Wunderground v.1.15,2013-08-23 22:27:00,
2013-08-23 18:33:00,70.2,57.0,30.09,North,355,3.0,4.0,63,0.00,,,0.20,Wunderground v.1.15,2013-08-23 22:33:00,
2013-08-23 18:38:00,70.1,56.9,30.09,NNE,32,2.0,5.0,63,0.00,,,0.20,Wunderground v.1.15,2013-08-23 22:38:00,
2013-08-23 18:43:00,70.0,56.4,30.10,North,360,2.0,4.0,62,0.00,,,0.20,Wunderground v.1.15,2013-08-23 22:43:00,
2013-08-23 18:49:00,69.9,56.7,30.10,North,5,2.0,4.0,63,0.00,,,0.20,Wunderground v.1.15,2013-08-23 22:49:00,
2013-08-23 18:54:00,69.6,56.4,30.10,North,11,1.0,4.0,63,0.00,,,0.20,Wunderground v.1.15,2013-08-23 22:54:00,
2013-08-23 19:00:00,69.2,56.1,30.10,NNE,29,1.0,3.0,63,0.00,,,0.20,Wunderground v.1.15,2013-08-23 23:00:00,
2013-08-23 19:05:00,68.9,55.8,30.10,NNE,19,2.0,4.0,63,0.00,,,0.20,Wunderground v.1.15,2013-08-23 23:05:00,
2013-08-23 19:11:00,68.8,56.1,30.10,North,5,1.0,1.0,64,0.00,,,0.20,Wunderground v.1.15,2013-08-23 23:11:00,
2013-08-23 19:17:00,68.5,56.3,30.10,NNE,13,0.0,2.0,65,0.00,,,0.20,Wunderground v.1.15,2013-08-23 23:17:00,
2013-08-23 19:23:00,68.1,55.9,30.10,NNE,13,1.0,1.0,65,0.00,,,0.20,Wunderground v.1.15,2013-08-23 23:23:00,
2013-08-23 19:28:00,67.7,55.9,30.11,NNE,13,0.0,1.0,66,0.00,,,0.20,Wunderground v.1.15,2013-08-23 23:28:00,
2013-08-23 19:34:00,67.4,56.1,30.11,NNE,13,0.0,0.0,67,0.00,,,0.20,Wunderground v.1.15,2013-08-23 23:34:00,
2013-08-23 19:39:00,67.0,56.5,30.11,NNE,13,0.0,0.0,69,0.00,,,0.20,Wunderground v.1.15,2013-08-23 23:39:00,
2013-08-23 19:45:00,66.4,56.3,30.11,NNE,13,0.0,0.0,70,0.00,,,0.20,Wunderground v.1.15,2013-08-23 23:45:00,
2013-08-23 19:50:00,65.8,56.1,30.11,NNE,13,0.0,0.0,71,0.00,,,0.20,Wunderground v.1.15,2013-08-23 23:50:00,
2013-08-23 19:56:00,65.1,56.2,30.11,NNE,13,0.0,0.0,73,0.00,,,0.20,Wunderground v.1.15,2013-08-23 23:56:00,
2013-08-23 20:01:00,64.5,56.0,30.11,NNE,13,0.0,0.0,74,0.00,,,0.20,Wunderground v.1.15,2013-08-24 00:01:00,
2013-08-23 20:07:00,63.9,56.2,30.11,NNE,13,0.0,0.0,76,0.00,,,0.20,Wunderground v.1.15,2013-08-24 00:07:00,
2013-08-23 20:12:00,63.3,56.0,30.11,NNE,13,0.0,0.0,77,0.00,,,0.20,Wunderground v.1.15,2013-08-24 00:12:00,
2013-08-23 20:18:00,62.7,55.7,30.12,NNE,13,0.0,0.0,78,0.00,,,0.20,Wunderground v.1.15,2013-08-24 00:18:00,
2013-08-23 20:23:00,62.3,55.7,30.12,NNE,13,0.0,0.0,79,0.00,,,0.21,Wunderground v.1.15,2013-08-24 00:23:00,
2013-08-23 20:29:00,61.8,55.9,30.12,NNE,13,0.0,0.0,81,0.00,,,0.21,Wunderground v.1.15,2013-08-24 00:29:00,
2013-08-23 20:34:00,61.4,55.9,30.12,NNE,13,0.0,0.0,82,0.00,,,0.21,Wunderground v.1.15,2013-08-24 00:34:00,
2013-08-23 20:40:00,60.8,55.6,30.12,NNE,13,0.0,0.0,83,0.00,,,0.21,Wunderground v.1.15,2013-08-24 00:40:00,
2013-08-23 20:45:00,60.4,55.5,30.13,NNE,13,0.0,0.0,84,0.00,,,0.21,Wunderground v.1.15,2013-08-24 00:45:00,
2013-08-23 20:50:00,60.0,55.5,30.13,NNE,13,0.0,0.0,85,0.00,,,0.21,Wunderground v.1.15,2013-08-24 00:50:00,
2013-08-23 20:56:00,59.5,55.3,30.13,NNE,13,0.0,0.0,86,0.00,,,0.21,Wunderground v.1.15,2013-08-24 00:56:00,
2013-08-23 21:01:00,59.2,55.0,30.14,NNE,13,0.0,0.0,86,0.00,,,0.21,Wunderground v.1.15,2013-08-24 01:01:00,
2013-08-23 21:07:00,58.9,55.0,30.14,NNE,13,0.0,0.0,87,0.00,,,0.21,Wunderground v.1.15,2013-08-24 01:07:00,
2013-08-23 21:12:00,58.7,54.8,30.14,NNE,13,0.0,0.0,87,0.00,,,0.21,Wunderground v.1.15,2013-08-24 01:12:00,
2013-08-23 21:18:00,58.5,55.0,30.14,NNE,13,0.0,0.0,88,0.00,,,0.21,Wunderground v.1.15,2013-08-24 01:18:00,
2013-08-23 21:23:00,58.4,54.9,30.15,NNE,13,0.0,0.0,88,0.00,,,0.21,Wunderground v.1.15,2013-08-24 01:23:00,
2013-08-23 21:29:00,58.2,54.7,30.15,NNE,13,0.0,0.0,88,0.00,,,0.21,Wunderground v.1.15,2013-08-24 01:29:00,
2013-08-23 21:34:00,58.0,54.5,30.15,NNE,13,0.0,0.0,88,0.00,,,0.21,Wunderground v.1.15,2013-08-24 01:34:00,
2013-08-23 21:40:00,57.6,53.8,30.15,NNE,13,0.0,0.0,87,0.00,,,0.21,Wunderground v.1.15,2013-08-24 01:40:00,
2013-08-23 21:46:00,57.0,53.5,30.15,NNE,13,0.0,0.0,88,0.00,,,0.21,Wunderground v.1.15,2013-08-24 01:46:00,
2013-08-23 21:51:00,56.7,53.5,30.16,NNE,13,0.0,0.0,89,0.00,,,0.21,Wunderground v.1.15,2013-08-24 01:51:00,
2013-08-23 21:56:00,56.4,53.2,30.16,NNE,13,0.0,0.0,89,0.00,,,0.21,Wunderground v.1.15,2013-08-24 01:56:00,
2013-08-23 22:02:00,56.2,53.0,30.16,NNE,13,0.0,0.0,89,0.00,,,0.21,Wunderground v.1.15,2013-08-24 02:02:00,
2013-08-23 22:08:00,56.0,52.8,30.16,NNE,13,0.0,0.0,89,0.00,,,0.21,Wunderground v.1.15,2013-08-24 02:08:00,
2013-08-23 22:14:00,55.9,52.7,30.16,NNE,13,0.0,0.0,89,0.00,,,0.21,Wunderground v.1.15,2013-08-24 02:14:00,
2013-08-23 22:20:00,55.8,52.6,30.16,NNE,13,0.0,0.0,89,0.00,,,0.21,Wunderground v.1.15,2013-08-24 02:20:00,
2013-08-23 22:26:00,55.6,52.7,30.17,NNE,13,0.0,0.0,90,0.00,,,0.21,Wunderground v.1.15,2013-08-24 02:26:00,
2013-08-23 22:31:00,55.5,52.6,30.17,NNE,13,0.0,0.0,90,0.00,,,0.21,Wunderground v.1.15,2013-08-24 02:31:00,
2013-08-23 22:37:00,55.3,52.1,30.17,NNE,13,0.0,0.0,89,0.00,,,0.21,Wunderground v.1.15,2013-08-24 02:37:00,
2013-08-23 22:42:00,55.0,52.1,30.17,NNE,13,0.0,0.0,90,0.00,,,0.21,Wunderground v.1.15,2013-08-24 02:42:00,
2013-08-23 22:48:00,54.8,51.6,30.17,NNE,13,0.0,0.0,89,0.00,,,0.21,Wunderground v.1.15,2013-08-24 02:48:00,
2013-08-23 22:53:00,54.5,51.6,30.17,NNE,13,0.0,0.0,90,0.00,,,0.21,Wunderground v.1.15,2013-08-24 02:53:00,
2013-08-23 22:59:00,54.3,51.4,30.17,NNE,13,0.0,0.0,90,0.00,,,0.21,Wunderground v.1.15,2013-08-24 02:59:00,
2013-08-23 23:04:00,54.1,51.2,30.18,NNE,13,0.0,0.0,90,0.00,,,0.21,Wunderground v.1.15,2013-08-24 03:04:00,
2013-08-23 23:10:00,53.9,51.0,30.18,NNE,13,0.0,0.0,90,0.00,,,0.21,Wunderground v.1.15,2013-08-24 03:10:00,
2013-08-23 23:15:00,53.8,50.6,30.18,NNE,13,0.0,0.0,89,0.00,,,0.21,Wunderground v.1.15,2013-08-24 03:15:00,
2013-08-23 23:21:00,53.8,50.6,30.18,NNE,13,0.0,0.0,89,0.00,,,0.22,Wunderground v.1.15,2013-08-24 03:21:00,
2013-08-23 23:26:00,53.7,50.5,30.19,NNE,13,0.0,0.0,89,0.00,,,0.22,Wunderground v.1.15,2013-08-24 03:26:00,
2013-08-23 23:32:00,53.5,50.3,30.19,NNE,13,0.0,0.0,89,0.00,,,0.22,Wunderground v.1.15,2013-08-24 03:32:00,
2013-08-23 23:37:00,53.3,50.1,30.19,NNE,13,0.0,0.0,89,0.00,,,0.22,Wunderground v.1.15,2013-08-24 03:37:00,
2013-08-23 23:43:00,53.1,49.9,30.19,NNE,13,0.0,0.0,89,0.00,,,0.22,Wunderground v.1.15,2013-08-24 03:43:00,
2013-08-23 23:48:00,52.9,49.7,30.19,NNE,13,0.0,0.0,89,0.00,,,0.22,Wunderground v.1.15,2013-08-24 03:48:00,
2013-08-23 23:53:00,52.9,49.7,30.19,NNE,13,0.0,0.0,89,0.00,,,0.22,Wunderground v.1.15,2013-08-24 03:53:00,
2013-08-23 23:59:00,52.9,49.7,30.19,NNE,13,0.0,0.0,89,0.00,,,0.22,Wunderground v.1.15,2013-08-24 03:59:00,